createdAt,value
2018-11-23T00:01:47.392Z,2.00
2018-11-23T00:04:15.873Z,1.90
2018-11-23T00:06:44.301Z,2.00
2018-11-23T00:09:12.876Z,2.00
2018-11-23T00:11:41.360Z,2.00
2018-11-23T00:14:09.824Z,2.00
2018-11-23T00:16:38.565Z,2.00
2018-11-23T00:19:07.033Z,2.00
2018-11-23T00:21:35.503Z,2.00
2018-11-23T00:24:04.264Z,1.90
2018-11-23T00:26:32.712Z,1.90
2018-11-23T00:29:01.178Z,1.80
2018-11-23T00:31:29.648Z,1.80
2018-11-23T00:33:58.092Z,1.80
2018-11-23T00:36:26.722Z,1.80
2018-11-23T00:38:55.297Z,1.80
2018-11-23T00:41:23.748Z,1.80
2018-11-23T00:43:52.211Z,1.80
2018-11-23T00:46:20.663Z,1.70
2018-11-23T00:48:49.521Z,1.80
2018-11-23T00:51:17.965Z,1.80
2018-11-23T00:53:46.415Z,1.80
2018-11-23T00:56:14.847Z,1.80
2018-11-23T00:58:43.329Z,1.80
2018-11-23T01:01:11.741Z,1.90
2018-11-23T01:03:40.228Z,1.90
2018-11-23T01:06:08.705Z,2.00
2018-11-23T01:08:37.200Z,1.90
2018-11-23T01:11:06.046Z,1.90
2018-11-23T01:13:34.523Z,1.90
2018-11-23T01:16:03.698Z,1.90
2018-11-23T01:18:32.260Z,1.80
2018-11-23T01:21:00.712Z,1.80
2018-11-23T01:23:29.197Z,1.70
2018-11-23T01:25:57.659Z,1.70
2018-11-23T01:28:26.149Z,1.70
2018-11-23T01:30:55.064Z,1.70
2018-11-23T01:33:23.520Z,1.70
2018-11-23T01:35:52.032Z,1.70
2018-11-23T01:38:20.516Z,1.60
2018-11-23T01:40:48.932Z,1.60
2018-11-23T01:43:17.377Z,1.60
2018-11-23T01:45:45.819Z,1.50
2018-11-23T01:48:14.261Z,1.40
2018-11-23T01:50:42.747Z,1.40
2018-11-23T01:53:11.226Z,1.30
2018-11-23T01:55:39.636Z,1.30
2018-11-23T01:58:08.067Z,1.20
2018-11-23T02:00:36.509Z,1.20
2018-11-23T02:03:05.291Z,1.20
2018-11-23T02:05:33.752Z,1.20
2018-11-23T02:08:02.185Z,1.20
2018-11-23T02:10:30.659Z,1.20
2018-11-23T02:12:59.092Z,1.20
2018-11-23T02:15:27.603Z,1.30
2018-11-23T02:17:56.231Z,1.30
2018-11-23T02:20:24.721Z,1.20
2018-11-23T02:22:53.152Z,1.20
2018-11-23T02:25:21.580Z,1.20
2018-11-23T02:27:50.067Z,1.20
2018-11-23T02:30:19.775Z,1.20
2018-11-23T02:32:48.273Z,1.30
2018-11-23T02:35:17.191Z,1.20
2018-11-23T02:37:45.722Z,1.20
2018-11-23T02:40:18.256Z,1.20
2018-11-23T02:42:46.806Z,1.20
2018-11-23T02:45:20.008Z,1.20
2018-11-23T02:47:49.013Z,1.20
2018-11-23T02:50:17.519Z,1.10
2018-11-23T02:52:46.368Z,1.20
2018-11-23T02:55:16.068Z,1.10
2018-11-23T02:57:44.515Z,1.10
2018-11-23T03:00:15.416Z,1.10
2018-11-23T03:02:44.184Z,1.10
2018-11-23T03:05:14.688Z,1.10
2018-11-23T03:07:43.506Z,1.00
2018-11-23T03:10:13.205Z,1.00
2018-11-23T03:12:42.235Z,1.00
2018-11-23T03:15:12.469Z,0.90
2018-11-23T03:17:41.224Z,0.90
2018-11-23T03:20:11.909Z,0.90
2018-11-23T03:22:40.830Z,0.90
2018-11-23T03:25:10.332Z,0.90
2018-11-23T03:27:38.769Z,0.90
2018-11-23T03:30:11.804Z,0.90
2018-11-23T03:32:40.229Z,0.90
2018-11-23T03:35:08.929Z,0.90
2018-11-23T03:37:37.374Z,0.90
2018-11-23T03:40:05.932Z,0.90
2018-11-23T03:42:34.364Z,0.90
2018-11-23T03:45:03.600Z,0.80
2018-11-23T03:47:32.070Z,0.80
2018-11-23T03:50:00.581Z,0.80
2018-11-23T03:52:29.030Z,0.80
2018-11-23T03:54:57.478Z,0.80
2018-11-23T03:57:25.920Z,0.70
2018-11-23T03:59:54.539Z,0.70
2018-11-23T04:02:22.976Z,0.70
2018-11-23T04:04:51.415Z,0.70
2018-11-23T04:07:19.849Z,0.80
2018-11-23T04:09:48.307Z,0.80
2018-11-23T04:12:16.778Z,0.80
2018-11-23T04:14:45.187Z,0.80
2018-11-23T04:17:13.624Z,0.80
2018-11-23T04:19:42.108Z,0.80
2018-11-23T04:22:10.559Z,0.70
2018-11-23T04:24:39.000Z,0.80
2018-11-23T04:27:07.708Z,0.80
2018-11-23T04:29:36.129Z,0.90
2018-11-23T04:32:04.615Z,0.90
2018-11-23T04:34:33.058Z,1.00
2018-11-23T04:37:01.486Z,1.00
2018-11-23T04:39:29.939Z,1.10
2018-11-23T04:41:58.443Z,1.10
2018-11-23T04:44:26.838Z,1.30
2018-11-23T04:46:55.302Z,1.40
2018-11-23T04:49:23.765Z,1.50
2018-11-23T04:51:52.236Z,1.50
2018-11-23T04:54:20.669Z,1.60
2018-11-23T04:56:49.132Z,1.60
2018-11-23T04:59:17.580Z,1.50
2018-11-23T05:01:46.028Z,1.60
2018-11-23T05:04:14.452Z,1.60
2018-11-23T05:06:42.895Z,1.50
2018-11-23T05:09:11.769Z,1.60
2018-11-23T05:11:40.256Z,1.50
2018-11-23T05:14:08.784Z,1.50
2018-11-23T05:16:37.224Z,1.60
2018-11-23T05:19:06.076Z,1.60
2018-11-23T05:21:34.586Z,1.60
2018-11-23T05:24:03.084Z,1.50
2018-11-23T05:26:31.537Z,1.50
2018-11-23T05:29:00.040Z,1.40
2018-11-23T05:31:28.493Z,1.40
2018-11-23T05:33:57.009Z,1.40
2018-11-23T05:36:25.440Z,1.30
2018-11-23T05:38:53.918Z,1.30
2018-11-23T05:41:22.430Z,1.30
2018-11-23T05:43:50.840Z,1.20
2018-11-23T05:46:19.287Z,1.20
2018-11-23T05:48:47.777Z,1.20
2018-11-23T05:51:16.259Z,1.40
2018-11-23T05:53:44.687Z,1.40
2018-11-23T05:56:13.308Z,1.40
2018-11-23T05:58:41.736Z,1.50
2018-11-23T06:01:10.192Z,1.60
2018-11-23T06:03:38.633Z,1.70
2018-11-23T06:06:07.137Z,1.70
2018-11-23T06:08:35.632Z,1.80
2018-11-23T06:11:04.431Z,1.90
2018-11-23T06:13:33.765Z,1.90
2018-11-23T06:16:02.229Z,1.90
2018-11-23T06:18:30.787Z,2.00
2018-11-23T06:20:59.235Z,1.90
2018-11-23T06:23:27.669Z,2.00
2018-11-23T06:26:04.389Z,2.00
2018-11-23T06:28:32.915Z,1.90
2018-11-23T06:31:01.366Z,1.90
2018-11-23T06:33:35.900Z,1.90
2018-11-23T06:36:08.271Z,1.90
2018-11-23T06:38:36.757Z,1.80
2018-11-23T06:41:10.148Z,1.80
2018-11-23T06:43:34.411Z,1.80
2018-11-23T06:46:03.813Z,1.80
2018-11-23T06:48:32.292Z,1.70
2018-11-23T06:51:00.724Z,1.60
2018-11-23T06:53:29.204Z,1.60
2018-11-23T06:55:58.497Z,1.60
2018-11-23T06:58:27.281Z,1.60
2018-11-23T07:00:56.069Z,1.60
2018-11-23T07:03:24.659Z,1.60
2018-11-23T07:05:53.165Z,1.70
2018-11-23T07:08:22.251Z,1.60
2018-11-23T07:10:50.778Z,1.60
2018-11-23T07:13:19.696Z,1.50
2018-11-23T07:15:48.204Z,1.50
2018-11-23T07:18:16.663Z,1.50
2018-11-23T07:20:45.115Z,1.40
2018-11-23T07:23:13.552Z,1.50
2018-11-23T07:25:42.045Z,1.50
2018-11-23T07:28:15.493Z,1.50
2018-11-23T07:30:38.963Z,1.60
2018-11-23T07:33:07.437Z,1.70
2018-11-23T07:35:35.914Z,1.70
2018-11-23T07:38:04.413Z,1.70
2018-11-23T07:40:45.624Z,1.80
2018-11-23T07:43:14.251Z,1.80
2018-11-23T07:45:43.594Z,1.90
2018-11-23T07:48:12.088Z,1.90
2018-11-23T07:50:40.662Z,2.00
2018-11-23T07:53:09.394Z,2.00
2018-11-23T07:55:37.848Z,2.20
2018-11-23T07:58:07.341Z,2.20
2018-11-23T08:00:35.836Z,2.30
2018-11-23T08:03:04.705Z,2.30
2018-11-23T08:05:33.185Z,2.30
2018-11-23T08:08:01.620Z,2.40
2018-11-23T08:10:29.252Z,2.50
2018-11-23T08:12:57.749Z,2.60
2018-11-23T08:15:27.227Z,2.60
2018-11-23T08:17:55.709Z,2.70
2018-11-23T08:20:25.280Z,2.80
2018-11-23T08:22:53.825Z,2.80
2018-11-23T08:25:23.506Z,2.80
2018-11-23T08:27:53.279Z,2.90
2018-11-23T08:30:24.314Z,3.00
2018-11-23T08:32:53.084Z,3.00
2018-11-23T08:35:21.545Z,3.10
2018-11-23T08:37:50.052Z,3.20
2018-11-23T08:40:20.847Z,3.30
2018-11-23T08:42:50.206Z,3.30
2018-11-23T08:45:20.607Z,3.40
2018-11-23T08:47:49.090Z,3.40
2018-11-23T08:50:21.149Z,3.50
2018-11-23T08:52:49.652Z,3.50
2018-11-23T08:55:18.734Z,3.50
2018-11-23T08:57:47.188Z,3.60
2018-11-23T09:00:23.785Z,3.70
2018-11-23T09:02:53.644Z,3.80
2018-11-23T09:05:22.094Z,3.80
2018-11-23T09:07:51.758Z,3.80
2018-11-23T09:10:22.581Z,3.90
2018-11-23T09:12:54.146Z,4.00
2018-11-23T09:15:22.718Z,4.10
2018-11-23T09:17:51.198Z,4.10
2018-11-23T09:20:20.504Z,4.20
2018-11-23T09:22:48.950Z,4.30
2018-11-23T09:25:18.634Z,4.30
2018-11-23T09:27:47.120Z,4.30
2018-11-23T09:30:20.968Z,4.40
2018-11-23T09:32:49.978Z,4.50
2018-11-23T09:35:18.478Z,4.60
2018-11-23T09:37:47.440Z,4.60
2018-11-23T09:40:17.383Z,4.60
2018-11-23T09:42:45.862Z,4.70
2018-11-23T09:45:16.801Z,4.80
2018-11-23T09:47:46.124Z,4.80
2018-11-23T09:50:16.027Z,4.90
2018-11-23T09:52:45.233Z,5.00
2018-11-23T09:55:13.716Z,5.00
2018-11-23T09:57:48.934Z,5.10
2018-11-23T10:00:18.843Z,5.10
2018-11-23T10:02:48.076Z,5.20
2018-11-23T10:05:17.135Z,5.30
2018-11-23T10:07:47.755Z,5.40
2018-11-23T10:10:17.191Z,5.40
2018-11-23T10:12:45.698Z,5.50
2018-11-23T10:15:15.435Z,5.60
2018-11-23T10:17:43.962Z,5.60
2018-11-23T10:20:14.932Z,5.70
2018-11-23T10:22:43.877Z,5.70
2018-11-23T10:25:13.756Z,5.60
2018-11-23T10:27:42.878Z,5.70
2018-11-23T10:30:13.915Z,5.70
2018-11-23T10:32:42.501Z,5.80
2018-11-23T10:35:11.508Z,5.90
2018-11-23T10:37:41.192Z,6.00
2018-11-23T10:40:14.069Z,6.00
2018-11-23T10:42:42.976Z,6.00
2018-11-23T10:45:13.603Z,6.10
2018-11-23T10:47:42.078Z,6.20
2018-11-23T10:50:13.617Z,6.20
2018-11-23T10:52:42.090Z,6.30
2018-11-23T10:55:13.173Z,6.40
2018-11-23T10:57:41.884Z,6.40
2018-11-23T11:00:21.760Z,6.40
2018-11-23T11:02:56.415Z,6.40
2018-11-23T11:05:35.195Z,6.50
2018-11-23T11:08:04.503Z,6.50
2018-11-23T11:10:32.961Z,6.60
2018-11-23T11:13:01.461Z,6.60
2018-11-23T11:15:29.924Z,6.70
2018-11-23T11:17:58.533Z,6.70
2018-11-23T11:20:26.986Z,6.80
2018-11-23T11:22:55.485Z,6.90
2018-11-23T11:25:23.995Z,6.90
2018-11-23T11:27:52.448Z,6.90
2018-11-23T11:30:21.146Z,6.90
2018-11-23T11:32:50.145Z,7.00
2018-11-23T11:35:18.632Z,7.00
2018-11-23T11:37:47.105Z,7.00
2018-11-23T11:40:17.138Z,7.00
2018-11-23T11:42:45.758Z,7.00
2018-11-23T11:45:15.671Z,7.10
2018-11-23T11:47:44.635Z,7.10
2018-11-23T11:50:13.819Z,7.20
2018-11-23T11:52:43.768Z,7.20
2018-11-23T11:55:14.171Z,7.20
2018-11-23T11:57:43.221Z,7.30
2018-11-23T12:00:21.909Z,7.40
2018-11-23T12:02:50.348Z,7.40
2018-11-23T12:05:18.816Z,7.50
2018-11-23T12:07:47.304Z,7.50
2018-11-23T12:10:17.514Z,7.50
2018-11-23T12:12:46.004Z,7.70
2018-11-23T12:15:15.182Z,7.70
2018-11-23T12:17:44.029Z,7.80
2018-11-23T12:20:14.808Z,7.70
2018-11-23T12:22:43.819Z,7.80
2018-11-23T12:25:12.316Z,7.80
2018-11-23T12:27:40.887Z,7.80
2018-11-23T12:30:15.089Z,7.80
2018-11-23T12:32:44.746Z,7.90
2018-11-23T12:35:14.305Z,7.90
2018-11-23T12:37:43.190Z,8.00
2018-11-23T12:40:13.711Z,7.90
2018-11-23T12:42:42.799Z,8.00
2018-11-23T12:45:14.252Z,8.10
2018-11-23T12:47:42.881Z,8.10
2018-11-23T12:50:14.417Z,8.20
2018-11-23T12:52:42.903Z,8.20
2018-11-23T12:55:11.800Z,8.30
2018-11-23T12:57:40.757Z,8.30
2018-11-23T13:00:12.889Z,8.40
2018-11-23T13:02:41.327Z,8.40
2018-11-23T13:05:09.803Z,8.40
2018-11-23T13:07:38.220Z,8.40
2018-11-23T13:10:07.379Z,8.40
2018-11-23T13:12:35.828Z,8.30
2018-11-23T13:15:04.741Z,8.30
2018-11-23T13:17:33.216Z,8.40
2018-11-23T13:20:01.696Z,8.40
2018-11-23T13:22:30.161Z,8.40
2018-11-23T13:24:58.613Z,8.40
2018-11-23T13:27:27.075Z,8.40
2018-11-23T13:29:55.569Z,8.30
2018-11-23T13:32:24.053Z,8.30
2018-11-23T13:34:52.531Z,8.30
2018-11-23T13:37:21.033Z,8.30
2018-11-23T13:39:49.764Z,8.30
2018-11-23T13:42:18.234Z,8.40
2018-11-23T13:44:46.709Z,8.40
2018-11-23T13:47:15.241Z,8.30
2018-11-23T13:49:43.690Z,8.30
2018-11-23T13:52:12.143Z,8.30
2018-11-23T13:54:40.672Z,8.20
2018-11-23T13:57:09.155Z,8.20
2018-11-23T13:59:37.697Z,8.20
2018-11-23T14:02:06.432Z,8.20
2018-11-23T14:04:34.886Z,8.20
2018-11-23T14:07:03.384Z,8.10
2018-11-23T14:09:31.847Z,8.10
2018-11-23T14:12:00.346Z,8.10
2018-11-23T14:14:28.798Z,8.10
2018-11-23T14:16:57.280Z,8.10
2018-11-23T14:19:25.789Z,8.10
2018-11-23T14:21:54.269Z,8.10
2018-11-23T14:24:22.754Z,8.00
2018-11-23T14:26:51.391Z,7.90
2018-11-23T14:29:19.897Z,7.90
2018-11-23T14:31:48.352Z,7.90
2018-11-23T14:34:16.828Z,7.90
2018-11-23T14:36:45.304Z,7.90
2018-11-23T14:39:13.764Z,7.80
2018-11-23T14:41:42.246Z,7.80
2018-11-23T14:44:10.761Z,7.80
2018-11-23T14:46:39.226Z,7.80
2018-11-23T14:49:07.745Z,7.70
2018-11-23T14:51:36.205Z,7.60
2018-11-23T14:54:04.771Z,7.60
2018-11-23T14:56:33.273Z,7.50
2018-11-23T14:59:01.740Z,7.50
2018-11-23T15:01:30.175Z,7.50
2018-11-23T15:03:58.658Z,7.50
2018-11-23T15:06:27.134Z,7.50
2018-11-23T15:08:55.967Z,7.40
2018-11-23T15:11:24.516Z,7.30
2018-11-23T15:13:53.000Z,7.30
2018-11-23T15:16:21.455Z,7.20
2018-11-23T15:18:50.014Z,7.10
2018-11-23T15:21:18.431Z,7.00
2018-11-23T15:23:46.969Z,6.90
2018-11-23T15:26:15.400Z,6.80
2018-11-23T15:28:43.892Z,6.80
2018-11-23T15:31:12.346Z,6.70
2018-11-23T15:33:40.777Z,6.60
2018-11-23T15:36:09.291Z,6.50
2018-11-23T15:38:37.771Z,6.50
2018-11-23T15:41:06.261Z,6.30
2018-11-23T15:43:34.708Z,6.30
2018-11-23T15:46:03.247Z,6.10
2018-11-23T15:48:31.662Z,6.00
2018-11-23T15:51:05.367Z,5.90
2018-11-23T15:53:33.813Z,5.80
2018-11-23T15:56:02.302Z,5.80
2018-11-23T15:58:30.760Z,5.70
2018-11-23T16:00:59.374Z,5.50
2018-11-23T16:03:27.874Z,5.50
2018-11-23T16:05:56.514Z,5.40
2018-11-23T16:08:24.948Z,5.30
2018-11-23T16:10:53.416Z,5.20
2018-11-23T16:13:21.869Z,5.10
2018-11-23T16:15:50.420Z,5.10
2018-11-23T16:18:18.862Z,5.00
2018-11-23T16:20:47.808Z,4.90
2018-11-23T16:23:17.871Z,4.80
2018-11-23T16:25:47.078Z,4.80
2018-11-23T16:28:15.600Z,4.80
2018-11-23T16:30:46.474Z,4.70
2018-11-23T16:33:16.848Z,4.70
2018-11-23T16:35:45.464Z,4.60
2018-11-23T16:38:15.545Z,4.60
2018-11-23T16:40:45.667Z,4.60
2018-11-23T16:43:14.876Z,4.50
2018-11-23T16:45:43.976Z,4.50
2018-11-23T16:48:13.416Z,4.50
2018-11-23T16:50:41.958Z,4.50
2018-11-23T16:53:10.448Z,4.50
2018-11-23T16:55:38.910Z,4.40
2018-11-23T16:58:08.697Z,4.40
2018-11-23T17:00:38.551Z,4.40
2018-11-23T17:03:09.355Z,4.40
2018-11-23T17:05:42.178Z,4.30
2018-11-23T17:08:10.990Z,4.30
2018-11-23T17:10:39.468Z,4.40
2018-11-23T17:13:08.172Z,4.30
2018-11-23T17:15:36.612Z,4.20
2018-11-23T17:18:05.466Z,4.10
2018-11-23T17:20:34.675Z,4.10
2018-11-23T17:23:04.420Z,4.00
2018-11-23T17:25:33.176Z,4.00
2018-11-23T17:28:03.123Z,4.00
2018-11-23T17:30:32.505Z,4.00
2018-11-23T17:33:01.137Z,4.20
2018-11-23T17:35:29.977Z,4.20
2018-11-23T17:37:58.511Z,4.40
2018-11-23T17:40:28.514Z,4.40
2018-11-23T17:42:57.028Z,4.50
2018-11-23T17:45:28.620Z,4.50
2018-11-23T17:47:57.279Z,4.50
2018-11-23T17:50:27.927Z,4.50
2018-11-23T17:52:56.714Z,4.50
2018-11-23T17:55:25.190Z,4.40
2018-11-23T17:57:54.741Z,4.40
2018-11-23T18:00:25.586Z,4.40
2018-11-23T18:02:54.813Z,4.30
2018-11-23T18:05:24.925Z,4.20
2018-11-23T18:07:53.533Z,4.20
2018-11-23T18:10:24.302Z,4.20
2018-11-23T18:12:53.647Z,4.10
2018-11-23T18:15:23.911Z,4.10
2018-11-23T18:17:53.124Z,4.10
2018-11-23T18:20:22.708Z,4.10
2018-11-23T18:22:52.719Z,4.00
2018-11-23T18:25:27.653Z,4.00
2018-11-23T18:28:00.232Z,4.10
2018-11-23T18:30:31.836Z,4.10
2018-11-23T18:33:01.358Z,4.10
2018-11-23T18:35:29.930Z,4.10
2018-11-23T18:37:58.491Z,4.00
2018-11-23T18:40:26.940Z,4.00
2018-11-23T18:42:55.492Z,3.90
2018-11-23T18:45:23.991Z,3.90
2018-11-23T18:47:52.532Z,3.90
2018-11-23T18:50:21.068Z,3.90
2018-11-23T18:52:49.576Z,3.90
2018-11-23T18:55:22.072Z,4.00
2018-11-23T18:57:50.591Z,4.00
2018-11-23T19:00:19.054Z,4.00
2018-11-23T19:02:47.996Z,4.00
2018-11-23T19:05:24.393Z,4.10
2018-11-23T19:07:52.913Z,4.00
2018-11-23T19:10:21.427Z,4.00
2018-11-23T19:12:49.971Z,4.00
2018-11-23T19:15:25.101Z,3.90
2018-11-23T19:17:47.451Z,3.90
2018-11-23T19:20:19.166Z,3.90
2018-11-23T19:22:49.840Z,3.80
2018-11-23T19:25:18.405Z,3.80
2018-11-23T19:27:46.969Z,3.80
2018-11-23T19:30:17.002Z,3.80
2018-11-23T19:32:45.534Z,3.70
2018-11-23T19:35:14.415Z,3.60
2018-11-23T19:37:42.964Z,3.60
2018-11-23T19:40:13.606Z,3.70
2018-11-23T19:42:42.383Z,3.60
2018-11-23T19:45:13.137Z,3.60
2018-11-23T19:47:41.598Z,3.50
2018-11-23T19:50:12.652Z,3.60
2018-11-23T19:52:41.221Z,3.60
2018-11-23T19:55:10.576Z,3.60
2018-11-23T19:57:39.112Z,3.70
2018-11-23T20:00:21.443Z,3.60
2018-11-23T20:02:49.960Z,3.70
2018-11-23T20:05:18.654Z,3.80
2018-11-23T20:07:51.552Z,3.80
2018-11-23T20:10:20.874Z,3.70
2018-11-23T20:12:50.748Z,3.70
2018-11-23T20:15:19.449Z,3.60
2018-11-23T20:17:48.101Z,3.60
2018-11-23T20:20:17.252Z,3.60
2018-11-23T20:22:46.456Z,3.60
2018-11-23T20:25:16.035Z,3.60
2018-11-23T20:27:44.954Z,3.60
2018-11-23T20:30:15.473Z,3.60
2018-11-23T20:32:44.031Z,3.60
2018-11-23T20:35:17.345Z,3.60
2018-11-23T20:37:45.886Z,3.60
2018-11-23T20:40:17.597Z,3.70
2018-11-23T20:42:46.193Z,3.70
2018-11-23T20:45:14.764Z,3.60
2018-11-23T20:47:43.269Z,3.60
2018-11-23T20:50:13.051Z,3.60
2018-11-23T20:52:41.658Z,3.50
2018-11-23T20:55:12.487Z,3.60
2018-11-23T20:57:41.001Z,3.60
2018-11-23T21:00:12.766Z,3.60
2018-11-23T21:02:41.305Z,3.60
2018-11-23T21:05:11.054Z,3.60
2018-11-23T21:07:39.644Z,3.60
2018-11-23T21:10:10.732Z,3.60
2018-11-23T21:12:39.241Z,3.50
2018-11-23T21:15:38.749Z,3.50
2018-11-23T21:18:07.564Z,3.50
2018-11-23T21:20:39.018Z,3.50
2018-11-23T21:23:07.687Z,3.50
2018-11-23T21:25:36.141Z,3.50
2018-11-23T21:28:05.956Z,3.50
2018-11-23T21:30:33.308Z,3.40
2018-11-23T21:33:01.852Z,3.50
2018-11-23T21:35:30.384Z,3.60
2018-11-23T21:37:58.846Z,3.60
2018-11-23T21:40:27.349Z,3.70
2018-11-23T21:42:55.866Z,3.60
2018-11-23T21:45:24.629Z,3.50
2018-11-23T21:47:53.134Z,3.50
2018-11-23T21:50:25.475Z,3.60
2018-11-23T21:52:50.772Z,3.60
2018-11-23T21:55:21.633Z,3.60
2018-11-23T21:57:51.035Z,3.60
2018-11-23T22:00:19.612Z,3.60
2018-11-23T22:02:48.118Z,3.70
2018-11-23T22:05:16.680Z,3.70
2018-11-23T22:07:45.229Z,3.60
2018-11-23T22:10:14.835Z,3.70
2018-11-23T22:12:43.405Z,3.70
2018-11-23T22:15:19.962Z,3.70
2018-11-23T22:17:48.989Z,3.60
2018-11-23T22:20:18.500Z,3.70
2018-11-23T22:22:47.002Z,3.60
2018-11-23T22:25:17.410Z,3.70
2018-11-23T22:27:45.973Z,3.70
2018-11-23T22:30:20.623Z,3.70
2018-11-23T22:32:49.127Z,3.70
2018-11-23T22:35:17.635Z,3.60
2018-11-23T22:37:46.168Z,3.70
2018-11-23T22:40:15.851Z,3.60
2018-11-23T22:42:45.695Z,3.60
2018-11-23T22:45:15.096Z,3.60
2018-11-23T22:47:43.626Z,3.60
2018-11-23T22:50:13.513Z,3.60
2018-11-23T22:52:42.002Z,3.60
2018-11-23T22:55:11.678Z,3.60
2018-11-23T22:57:40.151Z,3.60
2018-11-23T23:00:20.260Z,3.60
2018-11-23T23:02:49.624Z,3.50
2018-11-23T23:05:18.889Z,3.50
2018-11-23T23:07:47.417Z,3.50
2018-11-23T23:10:15.930Z,3.40
2018-11-23T23:12:44.424Z,3.30
2018-11-23T23:15:13.024Z,3.30
2018-11-23T23:17:42.007Z,3.30
2018-11-23T23:20:12.720Z,3.30
2018-11-23T23:22:41.265Z,3.20
2018-11-23T23:25:10.967Z,3.20
2018-11-23T23:27:39.439Z,3.20
2018-11-23T23:30:17.698Z,3.20
2018-11-23T23:32:47.000Z,3.20
2018-11-23T23:35:16.312Z,3.20
2018-11-23T23:37:44.721Z,3.20
2018-11-23T23:40:18.025Z,3.20
2018-11-23T23:42:47.066Z,3.20
2018-11-23T23:45:17.736Z,3.20
2018-11-23T23:47:46.243Z,3.20
2018-11-23T23:50:15.930Z,3.20
2018-11-23T23:52:44.342Z,3.20
2018-11-23T23:55:12.851Z,3.10
2018-11-23T23:57:42.424Z,3.10
